Time;durP1;ratioP1;P1;durP2;ratioP2;P2;SDS_P1;SDS_P2;PMS_P1;PMS_P2;Temp;Humidity;BMP_temperature;BMP_pressure;BME280_temperature;BME280_humidity;BME280_pressure;Samples;Min_cycle;Max_cycle;Signal;HPM_P1;HPM_P2
2023/06/07 00:00:14;;;;;;;6.18;5.28;;;;;;;11.67;100.00;95943.03;1022940;29;20126;-76
2023/06/07 00:00:45;;;;;;;8.48;5.75;;;;;;;11.68;100.00;95943.81;1023017;28;20389;-76
2023/06/07 00:01:17;;;;;;;6.50;5.82;;;;;;;11.67;100.00;95940.41;1022358;28;20418;-76
2023/06/07 00:01:47;;;;;;;7.88;5.47;;;;;;;11.65;100.00;95941.69;1031262;28;20514;-77
2023/06/07 00:02:18;;;;;;;6.80;5.50;;;;;;;11.65;100.00;95945.13;1035270;28;20054;-76
2023/06/07 00:02:48;;;;;;;7.28;5.75;;;;;;;11.65;100.00;95941.69;1031189;28;20041;-76
2023/06/07 00:03:19;;;;;;;7.00;6.30;;;;;;;11.61;100.00;95935.41;1035138;28;20068;-76
2023/06/07 00:03:49;;;;;;;6.57;5.88;;;;;;;11.59;100.00;95933.03;1021487;28;20512;-76
2023/06/07 00:04:20;;;;;;;6.95;6.07;;;;;;;11.60;100.00;95939.06;1018300;29;20375;-76
2023/06/07 00:04:50;;;;;;;7.82;5.80;;;;;;;11.59;100.00;95938.28;1027173;28;20309;-76
2023/06/07 00:05:21;;;;;;;7.38;6.18;;;;;;;11.63;100.00;95946.41;1030714;28;20038;-76
2023/06/07 00:05:52;;;;;;;9.73;6.30;;;;;;;11.62;100.00;95942.22;1031140;28;20023;-76
2023/06/07 00:06:22;;;;;;;8.10;5.93;;;;;;;11.56;100.00;95931.69;1019015;29;20441;-77
2023/06/07 00:06:56;;;;;;;8.25;6.30;;;;;;;11.61;100.00;95943.28;1027000;28;20416;-76
2023/06/07 00:07:26;;;;;;;7.30;5.43;;;;;;;11.60;100.00;95945.09;1026635;28;20023;-76
2023/06/07 00:07:57;;;;;;;8.70;6.07;;;;;;;11.60;100.00;95941.69;1027528;28;20039;-76
2023/06/07 00:08:31;;;;;;;7.30;6.18;;;;;;;11.60;100.00;95941.69;1031653;28;20110;-76
2023/06/07 00:09:01;;;;;;;6.53;5.82;;;;;;;11.62;100.00;95934.34;1035785;28;20092;-76
2023/06/07 00:09:31;;;;;;;8.65;6.25;;;;;;;11.55;100.00;95926.72;1034944;28;20604;-76
2023/06/07 00:10:03;;;;;;;7.43;6.22;;;;;;;11.61;100.00;95938.03;1030952;28;20831;-76
2023/06/07 00:10:33;;;;;;;9.05;7.00;;;;;;;11.59;100.00;95932.25;1027583;28;20141;-76
2023/06/07 00:11:04;;;;;;;7.32;6.53;;;;;;;11.60;100.00;95934.59;1022528;29;20023;-76
2023/06/07 00:11:35;;;;;;;6.88;6.05;;;;;;;11.55;100.00;95926.72;1026847;28;20078;-77
2023/06/07 00:12:06;;;;;;;9.70;6.60;;;;;;;11.49;100.00;95927.78;1027174;28;20069;-76
2023/06/07 00:12:37;;;;;;;6.88;6.20;;;;;;;11.59;100.00;95940.91;1027210;28;20341;-76
2023/06/07 00:13:07;;;;;;;8.80;6.38;;;;;;;11.58;100.00;95947.22;1026923;28;20278;-76
2023/06/07 00:13:37;;;;;;;6.93;6.03;;;;;;;11.56;100.00;95934.34;1026759;28;20516;-76
2023/06/07 00:14:08;;;;;;;7.70;6.20;;;;;;;11.50;100.00;95930.16;1022971;28;20097;-76
2023/06/07 00:14:38;;;;;;;7.60;6.50;;;;;;;11.53;100.00;95934.06;1023234;28;20076;-76
2023/06/07 00:15:09;;;;;;;7.95;6.68;;;;;;;11.54;100.00;95933.03;1026892;28;20649;-76
2023/06/07 00:15:40;;;;;;;8.88;6.30;;;;;;;11.51;100.00;95939.59;1019770;29;20023;-76
2023/06/07 00:16:10;;;;;;;6.30;5.70;;;;;;;11.50;100.00;95937.22;1019126;29;20032;-76
2023/06/07 00:16:41;;;;;;;7.35;5.72;;;;;;;11.45;100.00;95927.50;1031010;28;20053;-76
2023/06/07 00:17:12;;;;;;;7.68;6.75;;;;;;;11.49;100.00;95933.81;1026995;28;20105;-76
2023/06/07 00:17:44;;;;;;;9.20;6.25;;;;;;;11.45;100.00;95932.75;1022362;28;20038;-76
2023/06/07 00:18:16;;;;;;;9.27;6.82;;;;;;;11.38;100.00;95921.72;1015173;29;20054;-76
2023/06/07 00:18:47;;;;;;;8.57;6.47;;;;;;;11.46;100.00;95938.81;1023062;29;20271;-76
2023/06/07 00:19:21;;;;;;;8.20;7.20;;;;;;;11.38;100.00;95921.72;1024033;28;20812;-76
2023/06/07 00:19:52;;;;;;;7.20;6.50;;;;;;;11.44;100.00;95940.91;1027840;28;20616;-76
2023/06/07 00:20:23;;;;;;;7.90;7.10;;;;;;;11.41;100.00;95936.97;1030897;28;20156;-76
2023/06/07 00:20:53;;;;;;;7.85;7.05;;;;;;;11.35;100.00;95934.59;1027009;28;20472;-76
2023/06/07 00:21:24;;;;;;;8.00;6.88;;;;;;;11.42;100.00;95943.78;1018066;28;20028;-75
2023/06/07 00:21:55;;;;;;;7.72;6.93;;;;;;;11.41;100.00;95936.19;1018900;29;20087;-76
2023/06/07 00:22:26;;;;;;;7.35;6.40;;;;;;;11.41;100.00;95936.19;1018965;29;20408;-76
2023/06/07 00:22:57;;;;;;;7.80;7.00;;;;;;;11.41;100.00;95939.59;1023155;28;20089;-76
2023/06/07 00:23:28;;;;;;;10.88;7.50;;;;;;;11.32;100.00;95928.03;1026668;28;20537;-76
2023/06/07 00:23:58;;;;;;;8.25;6.95;;;;;;;11.39;100.00;95938.28;1027186;28;20038;-76
2023/06/07 00:24:29;;;;;;;9.70;7.25;;;;;;;11.37;100.00;95946.44;1031147;28;20031;-76
2023/06/07 00:25:00;;;;;;;7.90;7.05;;;;;;;11.37;100.00;95946.44;1038488;28;20029;-76
2023/06/07 00:25:31;;;;;;;10.13;7.32;;;;;;;11.36;100.00;95946.69;1034578;28;20021;-76
2023/06/07 00:26:01;;;;;;;7.63;6.82;;;;;;;11.29;100.00;95933.81;1026651;28;20258;-76
2023/06/07 00:26:32;;;;;;;9.52;6.93;;;;;;;11.31;100.00;95929.88;1034843;28;20061;-76
2023/06/07 00:27:03;;;;;;;9.95;7.28;;;;;;;11.28;100.00;95937.50;1034921;28;20512;-76
2023/06/07 00:27:34;;;;;;;9.23;6.95;;;;;;;11.28;100.00;95934.88;1035026;28;20041;-76
2023/06/07 00:28:04;;;;;;;9.35;7.70;;;;;;;11.30;100.00;95935.38;1022827;29;20572;-76
2023/06/07 00:28:35;;;;;;;8.48;7.45;;;;;;;11.28;100.00;95937.50;1022924;28;20030;-76
2023/06/07 00:29:05;;;;;;;10.77;7.38;;;;;;;11.29;100.00;95939.06;1026957;28;20078;-76
2023/06/07 00:29:35;;;;;;;8.43;6.85;;;;;;;11.29;100.00;95936.44;1026883;28;20019;-76
2023/06/07 00:30:07;;;;;;;7.93;7.13;;;;;;;11.28;100.00;95946.16;1026859;28;20031;-76
2023/06/07 00:30:38;;;;;;;12.77;7.50;;;;;;;11.27;100.00;95938.53;1027161;28;20029;-76
2023/06/07 00:31:08;;;;;;;9.48;7.55;;;;;;;11.21;100.00;95927.25;1034256;28;20913;-76
2023/06/07 00:31:39;;;;;;;8.73;7.60;;;;;;;11.28;100.00;95937.50;1026652;28;20309;-76
2023/06/07 00:32:11;;;;;;;10.30;8.30;;;;;;;11.27;100.00;95939.34;1022778;29;20063;-76
2023/06/07 00:32:41;;;;;;;10.07;7.65;;;;;;;11.27;100.00;95941.19;1022711;29;20751;-76
2023/06/07 00:33:12;;;;;;;10.63;8.60;;;;;;;11.27;100.00;95938.53;1019166;28;20259;-76
2023/06/07 00:33:42;;;;;;;8.32;7.43;;;;;;;11.26;100.00;95945.63;1023027;28;20027;-76
2023/06/07 00:34:13;;;;;;;9.15;7.90;;;;;;;11.24;100.00;95945.09;1030734;28;20033;-77
2023/06/07 00:34:43;;;;;;;9.63;7.90;;;;;;;11.19;100.00;95931.94;1030978;28;20124;-77
2023/06/07 00:35:13;;;;;;;9.93;7.57;;;;;;;11.24;100.00;95936.44;1030682;28;20027;-77
2023/06/07 00:35:44;;;;;;;8.75;7.35;;;;;;;11.22;100.00;95939.31;1030884;28;20049;-76
2023/06/07 00:36:15;;;;;;;9.35;7.85;;;;;;;11.21;100.00;95939.59;1029751;28;20029;-76
2023/06/07 00:36:47;;;;;;;9.48;7.90;;;;;;;11.12;100.00;95926.16;1026803;28;20084;-76
2023/06/07 00:37:17;;;;;;;9.63;7.18;;;;;;;11.20;100.00;95940.63;1027522;28;20053;-76
2023/06/07 00:37:48;;;;;;;10.40;7.57;;;;;;;11.19;100.00;95939.84;1034599;28;20119;-76
2023/06/07 00:38:18;;;;;;;10.32;7.90;;;;;;;11.18;100.00;95938.25;1026872;28;20027;-76
2023/06/07 00:38:50;;;;;;;11.15;8.15;;;;;;;11.20;100.00;95940.63;1031281;28;20034;-76
2023/06/07 00:39:22;;;;;;;9.25;7.38;;;;;;;11.19;100.00;95939.03;1038943;28;20033;-76
2023/06/07 00:39:52;;;;;;;10.60;7.88;;;;;;;11.19;100.00;95944.31;1031323;28;20269;-75
2023/06/07 00:40:23;;;;;;;9.38;7.53;;;;;;;11.18;100.00;95937.47;1026652;28;20344;-76
2023/06/07 00:40:53;;;;;;;11.95;7.47;;;;;;;11.18;100.00;95937.47;1026638;28;20110;-76
2023/06/07 00:41:24;;;;;;;9.02;7.95;;;;;;;11.15;100.00;95933.53;1022506;28;20481;-76
2023/06/07 00:41:55;;;;;;;9.30;7.55;;;;;;;11.16;100.00;95934.31;1025351;28;20019;-76
2023/06/07 00:42:25;;;;;;;10.45;8.60;;;;;;;11.19;100.00;95939.03;1021850;29;20035;-76
2023/06/07 00:42:56;;;;;;;9.55;8.02;;;;;;;11.20;100.00;95940.63;1023105;29;20457;-76
2023/06/07 00:43:26;;;;;;;10.60;8.20;;;;;;;11.13;100.00;95930.38;1024357;28;20052;-76
2023/06/07 00:43:57;;;;;;;11.40;7.80;;;;;;;11.15;100.00;95936.16;1027088;28;20378;-76
2023/06/07 00:44:27;;;;;;;9.00;7.40;;;;;;;11.20;100.00;95935.38;1030844;28;20089;-76
2023/06/07 00:44:58;;;;;;;9.48;7.50;;;;;;;11.15;100.00;95927.50;1030781;28;20030;-76
2023/06/07 00:45:28;;;;;;;9.65;7.22;;;;;;;11.18;100.00;95932.22;1030905;28;20484;-76
2023/06/07 00:45:59;;;;;;;8.80;7.45;;;;;;;11.15;100.00;95930.13;1026908;28;20078;-76
2023/06/07 00:46:29;;;;;;;11.45;7.60;;;;;;;11.16;100.00;95927.22;1026760;28;20038;-76
2023/06/07 00:47:00;;;;;;;7.20;6.40;;;;;;;11.17;100.00;95930.66;1023971;28;20063;-76
2023/06/07 00:47:30;;;;;;;8.38;7.07;;;;;;;11.19;100.00;95933.78;1022712;29;20027;-76
2023/06/07 00:48:01;;;;;;;10.48;7.22;;;;;;;11.16;100.00;95929.84;1022806;29;20078;-77
2023/06/07 00:48:31;;;;;;;7.78;6.97;;;;;;;11.21;100.00;95931.72;1020266;29;20490;-77
2023/06/07 00:49:02;;;;;;;7.25;6.55;;;;;;;11.19;100.00;95937.22;1022632;29;20030;-76
2023/06/07 00:49:32;;;;;;;9.40;7.13;;;;;;;11.18;100.00;95933.00;1018712;29;20015;-76
2023/06/07 00:50:03;;;;;;;9.85;6.72;;;;;;;11.18;100.00;95929.59;1018910;28;20091;-76
2023/06/07 00:50:34;;;;;;;9.80;7.20;;;;;;;11.17;100.00;95934.06;1030974;28;20524;-76
2023/06/07 00:51:04;;;;;;;7.18;6.47;;;;;;;11.14;100.00;95928.56;1030488;28;20093;-76
2023/06/07 00:51:35;;;;;;;7.10;6.40;;;;;;;11.14;100.00;95925.94;1022672;28;20140;-76
2023/06/07 00:52:06;;;;;;;8.95;7.15;;;;;;;11.11;100.00;95926.44;1030805;28;20025;-76
2023/06/07 00:52:36;;;;;;;7.40;6.60;;;;;;;11.12;100.00;95928.78;1026947;28;20061;-76
2023/06/07 00:53:07;;;;;;;7.10;6.05;;;;;;;11.13;100.00;95929.59;1030668;28;20019;-76
2023/06/07 00:53:37;;;;;;;8.80;7.35;;;;;;;11.04;100.00;95914.34;1022646;28;20475;-76
2023/06/07 00:54:08;;;;;;;9.07;7.47;;;;;;;11.11;100.00;95932.47;1014854;29;20395;-76
2023/06/07 00:54:39;;;;;;;8.95;7.50;;;;;;;11.11;100.00;95932.47;1022852;29;20023;-76
2023/06/07 00:55:10;;;;;;;16.17;7.75;;;;;;;11.09;100.00;95935.34;1022624;28;20808;-77
2023/06/07 00:55:40;;;;;;;9.30;7.38;;;;;;;11.06;100.00;95924.59;1026915;28;20027;-76
2023/06/07 00:56:10;;;;;;;9.30;6.97;;;;;;;11.07;100.00;95920.94;1034762;28;20018;-76
2023/06/07 00:56:41;;;;;;;8.63;7.43;;;;;;;11.05;100.00;95923.78;1026850;28;20018;-77
2023/06/07 00:57:11;;;;;;;9.55;7.63;;;;;;;11.03;100.00;95925.09;1022757;28;20047;-76
2023/06/07 00:57:42;;;;;;;9.95;7.93;;;;;;;11.04;100.00;95932.72;1022765;29;20032;-77
2023/06/07 00:58:12;;;;;;;10.75;7.70;;;;;;;10.97;100.00;95926.94;1026850;28;20015;-77
2023/06/07 00:58:43;;;;;;;10.15;7.57;;;;;;;11.04;100.00;95930.09;1034777;28;20048;-77
2023/06/07 00:59:13;;;;;;;9.75;7.32;;;;;;;11.03;100.00;95931.16;1022607;29;20023;-76
2023/06/07 00:59:44;;;;;;;13.38;7.30;;;;;;;11.01;100.00;95924.59;1018913;29;20717;-76
2023/06/07 01:00:15;;;;;;;9.88;7.07;;;;;;;11.03;100.00;95927.72;1022823;29;20019;-76
2023/06/07 01:00:46;;;;;;;9.07;7.20;;;;;;;11.03;100.00;95930.34;1026786;28;20121;-76
2023/06/07 01:01:17;;;;;;;11.38;7.30;;;;;;;11.00;100.00;95923.00;1022260;28;20019;-75
2023/06/07 01:01:51;;;;;;;10.20;8.60;;;;;;;10.96;100.00;95919.31;1027590;28;20262;-76
2023/06/07 01:02:22;;;;;;;10.90;7.45;;;;;;;11.02;100.00;95923.53;1026792;28;20045;-76
2023/06/07 01:02:53;;;;;;;9.75;8.07;;;;;;;10.97;100.00;95916.44;1027507;28;20279;-77
2023/06/07 01:03:23;;;;;;;9.57;7.75;;;;;;;10.96;100.00;95920.09;1030864;28;20373;-77
2023/06/07 01:03:53;;;;;;;8.63;7.38;;;;;;;10.97;100.00;95915.66;1024579;28;20034;-76
2023/06/07 01:04:24;;;;;;;9.30;7.03;;;;;;;10.98;100.00;95922.47;1018415;29;20902;-76
2023/06/07 01:04:56;;;;;;;8.57;7.28;;;;;;;10.86;100.00;95901.69;1026781;28;20030;-76
2023/06/07 01:05:27;;;;;;;8.32;7.40;;;;;;;10.92;100.00;95911.16;1034436;28;20117;-76
2023/06/07 01:05:58;;;;;;;10.77;8.35;;;;;;;10.97;100.00;95916.44;1026773;28;20274;-76
2023/06/07 01:06:29;;;;;;;9.15;7.45;;;;;;;10.95;100.00;95923.78;1027183;28;20035;-76
2023/06/07 01:07:02;;;;;;;10.32;7.57;;;;;;;10.83;100.00;95899.59;1034891;28;20272;-76
2023/06/07 01:07:33;;;;;;;7.25;6.55;;;;;;;10.94;100.00;95924.84;1027383;28;20862;-77
2023/06/07 01:08:04;;;;;;;7.75;6.70;;;;;;;10.90;100.00;95915.09;1026760;28;20282;-76
2023/06/07 01:08:35;;;;;;;8.52;7.00;;;;;;;10.87;100.00;95911.19;1018812;29;20031;-76
2023/06/07 01:09:12;;;;;;;7.97;6.82;;;;;;;10.94;100.00;95922.22;1030153;28;20113;-76
2023/06/07 01:09:43;;;;;;;9.02;7.15;;;;;;;10.96;100.00;95925.34;1030285;28;20262;-76
2023/06/07 01:10:14;;;;;;;11.95;7.20;;;;;;;10.92;100.00;95913.00;1034744;28;20252;-76
2023/06/07 01:10:44;;;;;;;12.10;7.50;;;;;;;11.01;100.00;95924.59;1026570;28;20026;-76
2023/06/07 01:11:15;;;;;;;8.80;7.32;;;;;;;10.88;100.00;95906.72;1018139;29;20032;-76
2023/06/07 01:11:48;;;;;;;10.25;7.95;;;;;;;10.97;100.00;95915.66;1018609;29;20044;-76
2023/06/07 01:12:18;;;;;;;11.38;8.00;;;;;;;10.96;100.00;95909.59;1026459;28;20560;-76
2023/06/07 01:12:49;;;;;;;8.15;6.55;;;;;;;11.00;100.00;95926.44;1022808;29;20365;-76
2023/06/07 01:13:19;;;;;;;8.82;6.18;;;;;;;10.98;100.00;95922.47;1022452;29;20023;-76
2023/06/07 01:13:50;;;;;;;9.35;7.40;;;;;;;10.96;100.00;95920.09;1026603;28;20543;-76
2023/06/07 01:14:21;;;;;;;8.23;7.22;;;;;;;10.94;100.00;95916.19;1026793;28;20456;-76
2023/06/07 01:14:51;;;;;;;10.35;7.10;;;;;;;10.99;100.00;95926.69;1018647;29;20328;-75
2023/06/07 01:15:22;;;;;;;10.32;7.30;;;;;;;10.96;100.00;95925.34;1026604;28;20552;-76
2023/06/07 01:15:53;;;;;;;8.15;6.75;;;;;;;10.92;100.00;95915.63;1028887;28;20033;-77
2023/06/07 01:16:23;;;;;;;9.57;6.88;;;;;;;10.97;100.00;95926.94;1018790;29;20027;-77
2023/06/07 01:16:56;;;;;;;9.95;6.60;;;;;;;10.89;100.00;95919.56;1022785;29;20031;-76
2023/06/07 01:17:28;;;;;;;8.88;7.07;;;;;;;10.94;100.00;95919.59;1030613;28;20060;-76
2023/06/07 01:17:58;;;;;;;8.65;7.10;;;;;;;10.89;100.00;95913.53;1024441;28;20270;-76
2023/06/07 01:18:29;;;;;;;9.57;7.20;;;;;;;10.84;100.00;95914.31;1030747;28;20711;-76
2023/06/07 01:19:02;;;;;;;10.48;7.40;;;;;;;10.88;100.00;95922.47;1026746;28;20019;-76
2023/06/07 01:19:34;;;;;;;9.23;7.75;;;;;;;10.85;100.00;95913.25;1031021;28;20036;-76
2023/06/07 01:20:06;;;;;;;8.48;7.53;;;;;;;10.92;100.00;95921.66;1030617;28;20026;-76
2023/06/07 01:20:38;;;;;;;10.25;7.18;;;;;;;10.87;100.00;95905.94;1025784;28;20772;-76
2023/06/07 01:21:12;;;;;;;10.05;7.53;;;;;;;10.95;100.00;95923.78;1030163;28;20333;-76
2023/06/07 01:21:43;;;;;;;9.18;6.93;;;;;;;10.95;100.00;95923.00;1026521;28;20266;-76
2023/06/07 01:22:13;;;;;;;11.07;7.60;;;;;;;10.93;100.00;95914.56;1026762;28;20054;-76
2023/06/07 01:22:44;;;;;;;10.35;7.80;;;;;;;10.89;100.00;95911.69;1026746;28;20025;-76
2023/06/07 01:23:15;;;;;;;10.10;8.02;;;;;;;10.93;100.00;95918.03;1030569;28;20142;-76
2023/06/07 01:23:45;;;;;;;10.18;8.15;;;;;;;10.91;100.00;95916.69;1022913;29;20760;-76
2023/06/07 01:24:18;;;;;;;9.23;8.23;;;;;;;10.88;100.00;95918.00;1026634;28;20026;-76
2023/06/07 01:24:49;;;;;;;10.52;7.63;;;;;;;10.90;100.00;95921.16;1022574;28;20527;-76
2023/06/07 01:25:19;;;;;;;9.38;7.38;;;;;;;10.88;100.00;95911.97;1026523;28;20277;-76
2023/06/07 01:25:50;;;;;;;14.68;7.80;;;;;;;10.88;100.00;95917.22;1018852;29;20493;-76
2023/06/07 01:26:20;;;;;;;11.65;7.63;;;;;;;10.88;100.00;95919.84;1023325;28;20026;-75
2023/06/07 01:26:57;;;;;;;8.55;6.90;;;;;;;10.83;100.00;95916.16;1022877;29;20042;-77
2023/06/07 01:27:30;;;;;;;9.77;7.57;;;;;;;10.87;100.00;95924.31;1034715;28;20482;-76
2023/06/07 01:28:01;;;;;;;8.90;7.82;;;;;;;10.73;100.00;95903.00;1026631;28;20274;-76
2023/06/07 01:28:33;;;;;;;10.52;6.85;;;;;;;10.83;100.00;95921.41;1022555;29;20915;-76
2023/06/07 01:29:06;;;;;;;10.20;8.25;;;;;;;10.79;100.00;95914.28;1022800;29;20027;-76
2023/06/07 01:29:36;;;;;;;9.90;6.97;;;;;;;10.83;100.00;95928.47;1026563;28;20773;-76
2023/06/07 01:30:07;;;;;;;9.63;8.18;;;;;;;10.81;100.00;95920.88;1034319;28;20360;-76
2023/06/07 01:30:37;;;;;;;8.50;7.18;;;;;;;10.82;100.00;95922.44;1030574;28;20030;-76
2023/06/07 01:31:09;;;;;;;9.82;7.60;;;;;;;10.76;100.00;95914.81;1022177;28;20031;-76
2023/06/07 01:31:39;;;;;;;9.30;7.80;;;;;;;10.75;100.00;95919.28;1026489;28;20030;-76
2023/06/07 01:32:12;;;;;;;9.43;7.50;;;;;;;10.80;100.00;95921.13;1030641;28;20766;-76
2023/06/07 01:32:42;;;;;;;9.15;7.43;;;;;;;10.77;100.00;95919.81;1034453;28;20036;-76
2023/06/07 01:33:12;;;;;;;9.55;7.55;;;;;;;10.74;100.00;95911.66;1027971;28;20870;-76
2023/06/07 01:33:43;;;;;;;8.98;7.60;;;;;;;10.77;100.00;95927.69;1022593;28;20030;-76
2023/06/07 01:34:13;;;;;;;9.88;7.53;;;;;;;10.76;100.00;95920.84;1030722;28;20451;-76
2023/06/07 01:34:44;;;;;;;8.40;7.35;;;;;;;10.74;100.00;95917.69;1030566;28;20101;-76
2023/06/07 01:35:14;;;;;;;10.93;7.35;;;;;;;10.75;100.00;95923.75;1022496;29;20135;-77
2023/06/07 01:35:46;;;;;;;8.93;7.40;;;;;;;10.64;100.00;95904.56;1030608;28;20109;-76
2023/06/07 01:36:16;;;;;;;13.70;8.57;;;;;;;10.74;100.00;95915.06;1029209;28;20037;-76
2023/06/07 01:36:47;;;;;;;8.85;7.35;;;;;;;10.74;100.00;95916.91;1021189;28;20792;-76
2023/06/07 01:37:18;;;;;;;9.80;7.30;;;;;;;10.72;100.00;95919.00;1022933;28;20116;-76
2023/06/07 01:37:49;;;;;;;10.15;7.10;;;;;;;10.70;100.00;95914.03;1018806;29;20130;-75
2023/06/07 01:38:20;;;;;;;8.40;6.85;;;;;;;10.69;100.00;95919.53;1026578;28;20266;-76
2023/06/07 01:38:50;;;;;;;10.20;7.10;;;;;;;10.70;100.00;95919.28;1026629;28;20086;-77
2023/06/07 01:39:21;;;;;;;8.57;7.15;;;;;;;10.71;100.00;95922.69;1038651;28;20438;-76
2023/06/07 01:39:52;;;;;;;9.20;7.63;;;;;;;10.71;100.00;95912.19;1026638;28;20744;-76
2023/06/07 01:40:22;;;;;;;15.13;8.10;;;;;;;10.77;100.00;95916.41;1030742;28;20269;-77
2023/06/07 01:40:53;;;;;;;8.70;6.90;;;;;;;10.73;100.00;95910.06;1030472;28;20022;-76
2023/06/07 01:41:25;;;;;;;10.80;7.78;;;;;;;10.73;100.00;95910.88;1029924;28;20022;-77
2023/06/07 01:41:55;;;;;;;8.50;7.45;;;;;;;10.73;100.00;95910.88;1029723;28;20061;-75
2023/06/07 01:42:26;;;;;;;10.25;7.47;;;;;;;10.81;100.00;95914.84;1029668;28;20351;-76
2023/06/07 01:42:56;;;;;;;10.25;7.82;;;;;;;10.74;100.00;95906.41;1018631;29;20035;-76
2023/06/07 01:43:26;;;;;;;7.95;7.05;;;;;;;10.74;100.00;95906.41;1026513;28;20524;-76
2023/06/07 01:43:57;;;;;;;10.07;6.95;;;;;;;10.76;100.00;95920.06;1026752;28;20496;-76
2023/06/07 01:44:28;;;;;;;9.07;6.75;;;;;;;10.70;100.00;95900.91;1034687;28;20026;-76
2023/06/07 01:44:58;;;;;;;8.85;7.40;;;;;;;10.65;100.00;95897.47;1022528;28;20035;-77
2023/06/07 01:45:29;;;;;;;7.88;7.07;;;;;;;10.71;100.00;95910.34;1018693;29;20027;-76
2023/06/07 01:46:00;;;;;;;8.75;7.22;;;;;;;10.66;100.00;95906.91;1030688;28;20041;-77
2023/06/07 01:46:30;;;;;;;9.75;7.15;;;;;;;10.68;100.00;95903.00;1026599;28;20070;-76
2023/06/07 01:47:01;;;;;;;9.07;7.20;;;;;;;10.68;100.00;95907.44;1022518;28;20038;-76
2023/06/07 01:47:32;;;;;;;10.73;7.35;;;;;;;10.65;100.00;95913.22;1018643;29;20493;-76
2023/06/07 01:48:02;;;;;;;8.02;6.97;;;;;;;10.66;100.00;95912.16;1030442;28;20038;-76
2023/06/07 01:48:32;;;;;;;8.52;6.82;;;;;;;10.65;100.00;95908.75;1028159;28;20017;-76
2023/06/07 01:49:03;;;;;;;7.25;5.95;;;;;;;10.64;100.00;95916.91;1030791;28;20571;-76
2023/06/07 01:49:34;;;;;;;8.60;6.78;;;;;;;10.62;100.00;95915.28;1026309;28;20030;-76
2023/06/07 01:50:06;;;;;;;8.27;6.65;;;;;;;10.64;100.00;95916.91;1018769;28;20024;-76
2023/06/07 01:50:36;;;;;;;9.02;6.80;;;;;;;10.62;100.00;95915.28;1022462;29;20788;-76
2023/06/07 01:51:07;;;;;;;8.00;7.03;;;;;;;10.56;100.00;95905.03;1022981;28;20274;-76
2023/06/07 01:51:37;;;;;;;8.55;7.35;;;;;;;10.61;100.00;95912.94;1030323;28;20515;-77
2023/06/07 01:52:08;;;;;;;8.80;7.35;;;;;;;10.60;100.00;95908.75;1018524;28;20027;-77
2023/06/07 01:52:38;;;;;;;9.98;7.20;;;;;;;10.56;100.00;95905.84;1022669;29;20777;-77
2023/06/07 01:53:09;;;;;;;11.98;7.82;;;;;;;10.56;100.00;95905.84;1022646;28;20027;-76
2023/06/07 01:53:39;;;;;;;7.68;6.88;;;;;;;10.57;100.00;95901.38;1028157;28;20481;-76
2023/06/07 01:54:10;;;;;;;11.55;8.40;;;;;;;10.55;100.00;95899.00;1038630;28;20091;-76
2023/06/07 01:54:40;;;;;;;10.15;8.63;;;;;;;10.54;100.00;95899.28;1030520;28;20137;-76
2023/06/07 01:55:11;;;;;;;9.80;7.95;;;;;;;10.50;100.00;95893.75;1026813;28;20015;-76
2023/06/07 01:55:41;;;;;;;8.90;7.95;;;;;;;10.52;100.00;95894.28;1030363;28;20547;-77
2023/06/07 01:56:53;;;;;;;11.35;7.35;;;;;;;10.58;100.00;95906.38;1026516;28;20023;-76
2023/06/07 01:57:44;;;;;;;10.18;7.75;;;;;;;10.57;100.00;95906.63;1030105;28;20621;-76
2023/06/07 01:58:19;;;;;;;11.23;8.48;;;;;;;10.55;100.00;95908.72;1034710;28;20322;-76
2023/06/07 01:59:12;;;;;;;11.02;9.23;;;;;;;10.48;100.00;95903.72;1038409;28;20108;-76
2023/06/07 02:00:13;;;;;;;11.23;8.70;;;;;;;10.50;100.00;95901.63;1034234;28;20346;-76
2023/06/07 02:01:07;;;;;;;9.45;8.20;;;;;;;10.48;100.00;95908.97;1018579;29;21054;-76
2023/06/07 02:01:40;;;;;;;;;;;;;;;10.48;100.00;95908.19;1029861;28;20261;-76
2023/06/07 02:02:13;;;;;;;10.85;7.80;;;;;;;10.46;100.00;95911.06;1034444;28;20032;-76
2023/06/07 02:02:50;;;;;;;9.70;8.15;;;;;;;10.42;100.00;95902.13;1030075;28;20277;-76
2023/06/07 02:03:31;;;;;;;10.02;8.50;;;;;;;10.46;100.00;95905.00;1024761;28;20328;-76
2023/06/07 02:04:01;;;;;;;10.95;7.53;;;;;;;10.43;100.00;95901.09;1032659;28;20272;-76
2023/06/07 02:04:37;;;;;;;13.95;9.02;;;;;;;10.37;100.00;95891.63;1026791;28;20333;-76
2023/06/07 02:05:11;;;;;;;10.85;9.15;;;;;;;10.45;100.00;95901.59;1022489;29;20270;-77
2023/06/07 02:05:47;;;;;;;13.52;8.98;;;;;;;10.32;100.00;95881.88;1026286;28;20266;-76
2023/06/07 02:06:24;;;;;;;14.02;9.70;;;;;;;10.45;100.00;95901.59;1018612;29;20387;-76
2023/06/07 02:06:55;;;;;;;15.23;9.35;;;;;;;10.42;100.00;95896.09;1022576;29;21088;-76
2023/06/07 02:07:27;;;;;;;11.80;9.20;;;;;;;10.45;100.00;95903.44;1017641;29;20267;-76
2023/06/07 02:07:59;;;;;;;11.05;8.90;;;;;;;10.40;100.00;95891.09;1018476;29;20051;-75
2023/06/07 02:08:34;;;;;;;13.35;10.35;;;;;;;10.41;100.00;95897.13;1022368;29;20282;-76
2023/06/07 02:09:07;;;;;;;12.27;9.63;;;;;;;10.46;100.00;95900.56;1022364;29;20271;-76
2023/06/07 02:09:37;;;;;;;13.93;10.52;;;;;;;10.45;100.00;95896.34;1018577;29;20267;-76
2023/06/07 02:10:08;;;;;;;10.75;8.88;;;;;;;10.49;100.00;95904.50;1034345;28;20818;-76
2023/06/07 02:10:38;;;;;;;11.48;10.13;;;;;;;10.46;100.00;95900.56;1030309;28;20211;-76
2023/06/07 02:11:09;;;;;;;12.50;10.18;;;;;;;10.39;100.00;95884.25;1029955;28;20413;-76
2023/06/07 02:11:39;;;;;;;13.15;10.32;;;;;;;10.46;100.00;95905.81;1026407;28;20034;-77
2023/06/07 02:12:10;;;;;;;12.27;9.93;;;;;;;10.38;100.00;95888.72;1030315;28;20030;-76
2023/06/07 02:12:41;;;;;;;13.60;9.60;;;;;;;10.38;100.00;95890.56;1030487;28;20054;-76
2023/06/07 02:13:11;;;;;;;11.50;9.75;;;;;;;10.42;100.00;95899.50;1026722;28;20655;-76
2023/06/07 02:13:42;;;;;;;10.65;9.55;;;;;;;10.44;100.00;95897.41;1030453;28;20037;-76
2023/06/07 02:14:12;;;;;;;19.50;10.13;;;;;;;10.37;100.00;95891.63;1026451;28;20105;-76
2023/06/07 02:14:43;;;;;;;12.68;9.88;;;;;;;10.42;100.00;95899.50;1030299;28;20076;-76
2023/06/07 02:15:13;;;;;;;26.40;10.10;;;;;;;10.41;100.00;95903.16;1018632;29;20036;-77
2023/06/07 02:15:45;;;;;;;10.38;8.73;;;;;;;10.43;100.00;95895.03;1027795;28;20026;-76
2023/06/07 02:16:15;;;;;;;12.98;9.90;;;;;;;10.36;100.00;95890.84;1022376;29;20027;-76
2023/06/07 02:16:46;;;;;;;12.88;9.25;;;;;;;10.34;100.00;95887.66;1014548;29;20295;-76
2023/06/07 02:17:16;;;;;;;13.52;9.30;;;;;;;10.40;100.00;95896.34;1018729;29;20035;-78
2023/06/07 02:17:57;;;;;;;14.05;9.85;;;;;;;10.42;100.00;95899.50;1022476;28;20074;-76
2023/06/07 02:18:27;;;;;;;12.07;9.57;;;;;;;10.41;100.00;95897.91;1029511;28;20034;-76
2023/06/07 02:18:58;;;;;;;10.77;9.00;;;;;;;10.37;100.00;95887.16;1033234;28;20289;-76
2023/06/07 02:19:32;;;;;;;10.05;8.38;;;;;;;10.39;100.00;95900.00;1030135;28;20022;-76
2023/06/07 02:20:03;;;;;;;12.23;9.38;;;;;;;10.39;100.00;95900.00;1031570;28;20277;-76
2023/06/07 02:20:34;;;;;;;11.38;9.50;;;;;;;10.36;100.00;95895.25;1034278;28;20269;-77
2023/06/07 02:21:05;;;;;;;10.57;9.05;;;;;;;10.36;100.00;95897.88;1030277;28;20269;-76
2023/06/07 02:21:38;;;;;;;14.02;10.18;;;;;;;10.34;100.00;95890.28;1026633;28;20031;-76
2023/06/07 02:22:08;;;;;;;12.77;9.32;;;;;;;10.29;100.00;95894.72;1031177;28;20026;-76
2023/06/07 02:22:39;;;;;;;11.25;8.82;;;;;;;10.34;100.00;95900.00;1025391;28;20266;-76
2023/06/07 02:23:09;;;;;;;10.30;9.05;;;;;;;10.33;100.00;95891.34;1023290;28;20019;-76
2023/06/07 02:23:40;;;;;;;11.02;8.43;;;;;;;10.26;100.00;95889.97;1019463;29;20031;-76
2023/06/07 02:24:10;;;;;;;10.20;8.63;;;;;;;10.33;100.00;95904.47;1023260;28;20034;-76
2023/06/07 02:24:41;;;;;;;11.25;8.30;;;;;;;10.33;100.00;95903.66;1030728;28;20034;-76
2023/06/07 02:25:12;;;;;;;9.88;7.82;;;;;;;10.32;100.00;95904.69;1027296;28;20689;-76
2023/06/07 02:25:42;;;;;;;13.95;9.07;;;;;;;10.27;100.00;95892.38;1030957;28;20038;-76
2023/06/07 02:26:12;;;;;;;14.63;8.98;;;;;;;10.31;100.00;95905.75;1031229;28;20026;-76